sensor_id;sensor_type;location;lat;lon;timestamp;P1;durP1;ratioP1;P2;durP2;ratioP2
42246;SDS011;27913;42.722;23.268;2022-11-15T00:00:07;33.65;;;14.85;;
42246;SDS011;27913;42.722;23.268;2022-11-15T00:02:33;46.20;;;18.20;;
42246;SDS011;27913;42.722;23.268;2022-11-15T00:04:59;50.05;;;18.40;;
42246;SDS011;27913;42.722;23.268;2022-11-15T00:07:24;55.10;;;19.88;;
42246;SDS011;27913;42.722;23.268;2022-11-15T00:09:50;58.28;;;26.10;;
42246;SDS011;27913;42.722;23.268;2022-11-15T00:12:16;70.43;;;28.45;;
42246;SDS011;27913;42.722;23.268;2022-11-15T00:14:41;55.45;;;24.17;;
42246;SDS011;27913;42.722;23.268;2022-11-15T00:17:06;50.58;;;23.33;;
42246;SDS011;27913;42.722;23.268;2022-11-15T00:19:32;49.78;;;21.90;;
42246;SDS011;27913;42.722;23.268;2022-11-15T00:21:58;48.03;;;20.52;;
42246;SDS011;27913;42.722;23.268;2022-11-15T00:24:23;52.65;;;20.70;;
42246;SDS011;27913;42.722;23.268;2022-11-15T00:26:49;47.22;;;21.85;;
42246;SDS011;27913;42.722;23.268;2022-11-15T00:29:14;44.65;;;19.27;;
42246;SDS011;27913;42.722;23.268;2022-11-15T00:31:40;42.30;;;17.55;;
42246;SDS011;27913;42.722;23.268;2022-11-15T00:34:05;36.40;;;15.30;;
42246;SDS011;27913;42.722;23.268;2022-11-15T00:36:32;41.17;;;17.05;;
42246;SDS011;27913;42.722;23.268;2022-11-15T00:38:59;35.25;;;15.68;;
42246;SDS011;27913;42.722;23.268;2022-11-15T00:41:25;34.33;;;13.57;;
42246;SDS011;27913;42.722;23.268;2022-11-15T00:43:50;28.92;;;13.30;;
42246;SDS011;27913;42.722;23.268;2022-11-15T00:46:16;32.58;;;14.15;;
42246;SDS011;27913;42.722;23.268;2022-11-15T00:48:41;29.83;;;13.13;;
42246;SDS011;27913;42.722;23.268;2022-11-15T00:51:07;35.72;;;14.23;;
42246;SDS011;27913;42.722;23.268;2022-11-15T00:53:32;35.78;;;15.88;;
42246;SDS011;27913;42.722;23.268;2022-11-15T00:55:57;32.75;;;13.35;;
42246;SDS011;27913;42.722;23.268;2022-11-15T00:58:23;27.88;;;13.20;;
42246;SDS011;27913;42.722;23.268;2022-11-15T01:03:23;37.53;;;13.98;;
42246;SDS011;27913;42.722;23.268;2022-11-15T01:05:49;30.67;;;12.38;;
42246;SDS011;27913;42.722;23.268;2022-11-15T01:08:15;24.40;;;11.18;;
42246;SDS011;27913;42.722;23.268;2022-11-15T01:10:41;31.77;;;12.75;;
42246;SDS011;27913;42.722;23.268;2022-11-15T01:13:06;31.58;;;13.93;;
42246;SDS011;27913;42.722;23.268;2022-11-15T01:15:32;26.60;;;11.85;;
42246;SDS011;27913;42.722;23.268;2022-11-15T01:17:57;34.22;;;14.15;;
42246;SDS011;27913;42.722;23.268;2022-11-15T01:20:23;31.02;;;13.63;;
42246;SDS011;27913;42.722;23.268;2022-11-15T01:22:49;29.55;;;13.55;;
42246;SDS011;27913;42.722;23.268;2022-11-15T01:25:14;32.50;;;12.93;;
42246;SDS011;27913;42.722;23.268;2022-11-15T01:27:40;28.42;;;13.77;;
42246;SDS011;27913;42.722;23.268;2022-11-15T01:30:05;34.20;;;13.68;;
42246;SDS011;27913;42.722;23.268;2022-11-15T01:32:31;29.73;;;13.23;;
42246;SDS011;27913;42.722;23.268;2022-11-15T01:34:57;30.90;;;13.23;;
42246;SDS011;27913;42.722;23.268;2022-11-15T01:37:22;26.65;;;12.45;;
42246;SDS011;27913;42.722;23.268;2022-11-15T01:39:48;35.90;;;14.38;;
42246;SDS011;27913;42.722;23.268;2022-11-15T01:42:13;30.23;;;14.25;;
42246;SDS011;27913;42.722;23.268;2022-11-15T01:44:41;28.58;;;12.80;;
42246;SDS011;27913;42.722;23.268;2022-11-15T01:47:16;36.80;;;13.98;;
42246;SDS011;27913;42.722;23.268;2022-11-15T01:49:55;29.73;;;13.20;;
42246;SDS011;27913;42.722;23.268;2022-11-15T01:54:55;27.92;;;11.27;;
42246;SDS011;27913;42.722;23.268;2022-11-15T01:57:26;26.88;;;12.98;;
42246;SDS011;27913;42.722;23.268;2022-11-15T01:59:51;31.85;;;14.32;;
42246;SDS011;27913;42.722;23.268;2022-11-15T02:02:17;28.77;;;13.20;;
42246;SDS011;27913;42.722;23.268;2022-11-15T02:04:46;31.27;;;14.95;;
42246;SDS011;27913;42.722;23.268;2022-11-15T02:07:14;30.30;;;14.37;;
42246;SDS011;27913;42.722;23.268;2022-11-15T02:09:42;32.38;;;13.73;;
42246;SDS011;27913;42.722;23.268;2022-11-15T02:12:09;28.63;;;11.98;;
42246;SDS011;27913;42.722;23.268;2022-11-15T02:14:36;42.13;;;15.18;;
42246;SDS011;27913;42.722;23.268;2022-11-15T02:17:15;39.65;;;13.82;;
42246;SDS011;27913;42.722;23.268;2022-11-15T02:28:43;31.92;;;13.93;;
42246;SDS011;27913;42.722;23.268;2022-11-15T02:37:30;35.67;;;14.93;;
42246;SDS011;27913;42.722;23.268;2022-11-15T02:42:35;34.47;;;15.10;;
42246;SDS011;27913;42.722;23.268;2022-11-15T02:45:28;37.67;;;13.90;;
42246;SDS011;27913;42.722;23.268;2022-11-15T02:47:58;32.25;;;14.45;;
42246;SDS011;27913;42.722;23.268;2022-11-15T02:50:27;35.47;;;14.95;;
42246;SDS011;27913;42.722;23.268;2022-11-15T02:52:54;41.50;;;16.35;;
42246;SDS011;27913;42.722;23.268;2022-11-15T03:00:50;46.13;;;18.47;;
42246;SDS011;27913;42.722;23.268;2022-11-15T03:11:29;29.77;;;11.38;;
42246;SDS011;27913;42.722;23.268;2022-11-15T03:14:07;31.67;;;13.52;;
42246;SDS011;27913;42.722;23.268;2022-11-15T03:16:47;30.92;;;14.43;;
42246;SDS011;27913;42.722;23.268;2022-11-15T03:22:23;30.88;;;13.60;;
42246;SDS011;27913;42.722;23.268;2022-11-15T03:24:52;29.60;;;13.15;;
42246;SDS011;27913;42.722;23.268;2022-11-15T03:27:23;31.10;;;14.13;;
42246;SDS011;27913;42.722;23.268;2022-11-15T03:29:53;30.92;;;12.52;;
42246;SDS011;27913;42.722;23.268;2022-11-15T03:32:29;29.65;;;13.50;;
42246;SDS011;27913;42.722;23.268;2022-11-15T03:35:32;33.58;;;13.70;;
42246;SDS011;27913;42.722;23.268;2022-11-15T03:40:40;31.02;;;13.60;;
42246;SDS011;27913;42.722;23.268;2022-11-15T03:45:36;35.53;;;14.80;;
42246;SDS011;27913;42.722;23.268;2022-11-15T03:48:20;40.17;;;16.05;;
42246;SDS011;27913;42.722;23.268;2022-11-15T03:50:49;39.55;;;16.27;;
42246;SDS011;27913;42.722;23.268;2022-11-15T03:53:15;39.05;;;15.75;;
42246;SDS011;27913;42.722;23.268;2022-11-15T03:55:40;46.45;;;15.20;;
42246;SDS011;27913;42.722;23.268;2022-11-15T03:58:06;41.22;;;15.60;;
42246;SDS011;27913;42.722;23.268;2022-11-15T04:00:31;40.38;;;16.30;;
42246;SDS011;27913;42.722;23.268;2022-11-15T04:02:57;42.63;;;15.82;;
42246;SDS011;27913;42.722;23.268;2022-11-15T04:05:23;39.28;;;16.05;;
42246;SDS011;27913;42.722;23.268;2022-11-15T04:07:49;46.10;;;17.00;;
42246;SDS011;27913;42.722;23.268;2022-11-15T04:10:14;59.60;;;21.10;;
42246;SDS011;27913;42.722;23.268;2022-11-15T04:12:41;58.83;;;21.23;;
42246;SDS011;27913;42.722;23.268;2022-11-15T04:15:12;47.55;;;18.85;;
42246;SDS011;27913;42.722;23.268;2022-11-15T04:17:46;50.20;;;19.65;;
42246;SDS011;27913;42.722;23.268;2022-11-15T04:23:04;60.95;;;23.63;;
42246;SDS011;27913;42.722;23.268;2022-11-15T04:25:49;59.20;;;23.88;;
42246;SDS011;27913;42.722;23.268;2022-11-15T04:28:16;61.78;;;21.48;;
42246;SDS011;27913;42.722;23.268;2022-11-15T04:30:42;49.17;;;20.77;;
42246;SDS011;27913;42.722;23.268;2022-11-15T04:33:08;48.20;;;20.20;;
42246;SDS011;27913;42.722;23.268;2022-11-15T04:35:34;57.08;;;21.35;;
42246;SDS011;27913;42.722;23.268;2022-11-15T04:37:59;56.00;;;21.35;;
42246;SDS011;27913;42.722;23.268;2022-11-15T04:40:26;57.95;;;22.15;;
42246;SDS011;27913;42.722;23.268;2022-11-15T04:42:52;60.03;;;23.15;;
42246;SDS011;27913;42.722;23.268;2022-11-15T04:45:18;64.05;;;22.90;;
42246;SDS011;27913;42.722;23.268;2022-11-15T04:47:44;76.95;;;27.63;;
42246;SDS011;27913;42.722;23.268;2022-11-15T04:50:11;77.63;;;25.95;;
42246;SDS011;27913;42.722;23.268;2022-11-15T04:52:41;71.47;;;22.42;;
42246;SDS011;27913;42.722;23.268;2022-11-15T04:55:16;58.05;;;18.27;;
42246;SDS011;27913;42.722;23.268;2022-11-15T04:57:42;51.33;;;19.65;;
42246;SDS011;27913;42.722;23.268;2022-11-15T05:00:08;59.35;;;22.95;;
42246;SDS011;27913;42.722;23.268;2022-11-15T05:02:37;60.67;;;22.00;;
42246;SDS011;27913;42.722;23.268;2022-11-15T05:05:41;53.78;;;19.05;;
42246;SDS011;27913;42.722;23.268;2022-11-15T05:08:07;60.25;;;21.77;;
42246;SDS011;27913;42.722;23.268;2022-11-15T05:10:32;58.42;;;19.45;;
42246;SDS011;27913;42.722;23.268;2022-11-15T05:12:58;54.95;;;18.17;;
42246;SDS011;27913;42.722;23.268;2022-11-15T05:15:23;40.03;;;14.88;;
42246;SDS011;27913;42.722;23.268;2022-11-15T05:17:49;35.13;;;13.13;;
42246;SDS011;27913;42.722;23.268;2022-11-15T05:20:14;29.88;;;11.55;;
42246;SDS011;27913;42.722;23.268;2022-11-15T05:22:40;38.63;;;13.95;;
42246;SDS011;27913;42.722;23.268;2022-11-15T05:25:06;38.83;;;13.13;;
42246;SDS011;27913;42.722;23.268;2022-11-15T05:27:32;33.80;;;12.52;;
42246;SDS011;27913;42.722;23.268;2022-11-15T05:30:00;28.20;;;12.25;;
42246;SDS011;27913;42.722;23.268;2022-11-15T05:32:25;29.65;;;12.48;;
42246;SDS011;27913;42.722;23.268;2022-11-15T05:34:52;42.00;;;16.33;;
42246;SDS011;27913;42.722;23.268;2022-11-15T05:37:19;47.92;;;15.65;;
42246;SDS011;27913;42.722;23.268;2022-11-15T05:39:44;38.20;;;15.82;;
42246;SDS011;27913;42.722;23.268;2022-11-15T05:42:11;35.03;;;14.38;;
42246;SDS011;27913;42.722;23.268;2022-11-15T05:44:39;36.08;;;14.27;;
42246;SDS011;27913;42.722;23.268;2022-11-15T05:47:08;36.50;;;15.40;;
42246;SDS011;27913;42.722;23.268;2022-11-15T05:49:38;34.20;;;15.00;;
42246;SDS011;27913;42.722;23.268;2022-11-15T05:52:07;43.80;;;14.88;;
42246;SDS011;27913;42.722;23.268;2022-11-15T05:54:39;39.85;;;15.25;;
42246;SDS011;27913;42.722;23.268;2022-11-15T05:57:04;44.80;;;17.77;;
42246;SDS011;27913;42.722;23.268;2022-11-15T05:59:31;49.40;;;17.65;;
42246;SDS011;27913;42.722;23.268;2022-11-15T06:01:58;51.80;;;17.67;;
42246;SDS011;27913;42.722;23.268;2022-11-15T06:04:23;47.85;;;17.92;;
42246;SDS011;27913;42.722;23.268;2022-11-15T06:06:49;43.67;;;15.65;;
42246;SDS011;27913;42.722;23.268;2022-11-15T06:09:14;42.33;;;16.00;;
42246;SDS011;27913;42.722;23.268;2022-11-15T06:11:40;50.13;;;17.48;;
42246;SDS011;27913;42.722;23.268;2022-11-15T06:14:06;53.88;;;21.00;;
42246;SDS011;27913;42.722;23.268;2022-11-15T06:16:31;49.03;;;18.42;;
42246;SDS011;27913;42.722;23.268;2022-11-15T06:18:57;65.28;;;22.88;;
42246;SDS011;27913;42.722;23.268;2022-11-15T06:21:22;66.82;;;22.83;;
42246;SDS011;27913;42.722;23.268;2022-11-15T06:23:48;73.63;;;24.42;;
42246;SDS011;27913;42.722;23.268;2022-11-15T06:26:14;93.65;;;34.60;;
42246;SDS011;27913;42.722;23.268;2022-11-15T06:28:39;89.20;;;34.53;;
42246;SDS011;27913;42.722;23.268;2022-11-15T06:31:06;79.30;;;29.85;;
42246;SDS011;27913;42.722;23.268;2022-11-15T06:33:33;85.30;;;29.10;;
42246;SDS011;27913;42.722;23.268;2022-11-15T06:36:05;94.68;;;31.65;;
42246;SDS011;27913;42.722;23.268;2022-11-15T06:38:33;82.80;;;28.38;;
42246;SDS011;27913;42.722;23.268;2022-11-15T06:41:03;78.53;;;24.92;;
42246;SDS011;27913;42.722;23.268;2022-11-15T06:43:29;65.43;;;21.95;;
42246;SDS011;27913;42.722;23.268;2022-11-15T06:45:57;56.28;;;23.70;;
42246;SDS011;27913;42.722;23.268;2022-11-15T06:48:23;60.00;;;22.38;;
42246;SDS011;27913;42.722;23.268;2022-11-15T06:50:55;58.40;;;21.67;;
42246;SDS011;27913;42.722;23.268;2022-11-15T06:53:22;56.92;;;20.73;;
42246;SDS011;27913;42.722;23.268;2022-11-15T06:55:48;64.90;;;22.90;;
42246;SDS011;27913;42.722;23.268;2022-11-15T06:58:14;51.13;;;21.00;;
42246;SDS011;27913;42.722;23.268;2022-11-15T07:00:39;61.30;;;20.52;;
42246;SDS011;27913;42.722;23.268;2022-11-15T07:03:05;67.20;;;25.25;;
42246;SDS011;27913;42.722;23.268;2022-11-15T07:05:31;69.43;;;24.77;;
42246;SDS011;27913;42.722;23.268;2022-11-15T07:07:57;81.97;;;27.70;;
42246;SDS011;27913;42.722;23.268;2022-11-15T07:10:23;89.63;;;31.23;;
42246;SDS011;27913;42.722;23.268;2022-11-15T07:12:53;90.70;;;32.28;;
42246;SDS011;27913;42.722;23.268;2022-11-15T07:15:22;80.03;;;30.42;;
42246;SDS011;27913;42.722;23.268;2022-11-15T07:17:49;83.05;;;30.52;;
42246;SDS011;27913;42.722;23.268;2022-11-15T07:20:15;82.55;;;29.80;;
42246;SDS011;27913;42.722;23.268;2022-11-15T07:22:42;84.07;;;32.17;;
42246;SDS011;27913;42.722;23.268;2022-11-15T07:25:10;79.10;;;31.20;;
42246;SDS011;27913;42.722;23.268;2022-11-15T07:27:36;78.72;;;28.73;;
42246;SDS011;27913;42.722;23.268;2022-11-15T07:30:01;66.65;;;25.52;;
42246;SDS011;27913;42.722;23.268;2022-11-15T07:32:27;61.25;;;23.27;;
42246;SDS011;27913;42.722;23.268;2022-11-15T07:34:53;63.92;;;25.55;;
42246;SDS011;27913;42.722;23.268;2022-11-15T07:37:19;78.82;;;27.25;;
42246;SDS011;27913;42.722;23.268;2022-11-15T07:39:44;60.47;;;24.52;;
42246;SDS011;27913;42.722;23.268;2022-11-15T07:42:10;51.83;;;22.90;;
42246;SDS011;27913;42.722;23.268;2022-11-15T07:45:07;55.25;;;22.75;;
42246;SDS011;27913;42.722;23.268;2022-11-15T07:47:33;57.00;;;20.83;;
42246;SDS011;27913;42.722;23.268;2022-11-15T07:49:59;64.85;;;23.58;;
42246;SDS011;27913;42.722;23.268;2022-11-15T07:52:24;60.17;;;21.58;;
42246;SDS011;27913;42.722;23.268;2022-11-15T07:54:49;65.32;;;24.02;;
42246;SDS011;27913;42.722;23.268;2022-11-15T07:57:15;55.22;;;22.52;;
42246;SDS011;27913;42.722;23.268;2022-11-15T07:59:40;58.10;;;20.90;;
42246;SDS011;27913;42.722;23.268;2022-11-15T08:02:08;70.10;;;25.70;;
42246;SDS011;27913;42.722;23.268;2022-11-15T08:04:34;66.05;;;22.27;;
42246;SDS011;27913;42.722;23.268;2022-11-15T08:06:59;59.13;;;21.70;;
42246;SDS011;27913;42.722;23.268;2022-11-15T08:09:25;54.83;;;22.17;;
42246;SDS011;27913;42.722;23.268;2022-11-15T08:11:50;55.28;;;20.70;;
42246;SDS011;27913;42.722;23.268;2022-11-15T08:14:16;64.53;;;23.17;;
42246;SDS011;27913;42.722;23.268;2022-11-15T08:16:41;61.92;;;23.17;;
42246;SDS011;27913;42.722;23.268;2022-11-15T08:19:07;68.78;;;25.60;;
42246;SDS011;27913;42.722;23.268;2022-11-15T08:21:33;60.05;;;20.35;;
42246;SDS011;27913;42.722;23.268;2022-11-15T08:23:58;65.72;;;21.27;;
42246;SDS011;27913;42.722;23.268;2022-11-15T08:26:24;78.28;;;26.75;;
42246;SDS011;27913;42.722;23.268;2022-11-15T08:28:52;70.45;;;25.45;;
42246;SDS011;27913;42.722;23.268;2022-11-15T08:31:18;60.45;;;22.45;;
42246;SDS011;27913;42.722;23.268;2022-11-15T08:33:45;66.40;;;24.20;;
42246;SDS011;27913;42.722;23.268;2022-11-15T08:36:14;67.88;;;24.13;;
42246;SDS011;27913;42.722;23.268;2022-11-15T08:38:41;69.40;;;24.97;;
42246;SDS011;27913;42.722;23.268;2022-11-15T08:41:06;71.32;;;25.90;;
42246;SDS011;27913;42.722;23.268;2022-11-15T08:43:37;61.63;;;23.73;;
42246;SDS011;27913;42.722;23.268;2022-11-15T08:46:03;77.68;;;29.30;;
42246;SDS011;27913;42.722;23.268;2022-11-15T08:48:29;73.75;;;24.65;;
42246;SDS011;27913;42.722;23.268;2022-11-15T08:50:55;72.72;;;26.42;;
42246;SDS011;27913;42.722;23.268;2022-11-15T08:53:21;64.80;;;23.95;;
42246;SDS011;27913;42.722;23.268;2022-11-15T08:55:47;76.50;;;26.58;;
42246;SDS011;27913;42.722;23.268;2022-11-15T08:58:13;75.30;;;28.33;;
42246;SDS011;27913;42.722;23.268;2022-11-15T09:00:38;80.85;;;29.77;;
42246;SDS011;27913;42.722;23.268;2022-11-15T09:03:04;84.07;;;28.58;;
42246;SDS011;27913;42.722;23.268;2022-11-15T09:05:30;88.78;;;31.75;;
42246;SDS011;27913;42.722;23.268;2022-11-15T09:07:56;82.45;;;29.77;;
42246;SDS011;27913;42.722;23.268;2022-11-15T09:10:22;94.65;;;32.10;;
42246;SDS011;27913;42.722;23.268;2022-11-15T09:12:47;91.18;;;32.45;;
42246;SDS011;27913;42.722;23.268;2022-11-15T09:15:14;88.88;;;29.35;;
42246;SDS011;27913;42.722;23.268;2022-11-15T09:17:40;88.53;;;30.70;;
42246;SDS011;27913;42.722;23.268;2022-11-15T09:20:06;91.93;;;34.42;;
42246;SDS011;27913;42.722;23.268;2022-11-15T09:22:33;100.38;;;31.90;;
42246;SDS011;27913;42.722;23.268;2022-11-15T09:24:58;81.97;;;30.98;;
42246;SDS011;27913;42.722;23.268;2022-11-15T09:27:27;98.15;;;31.15;;
42246;SDS011;27913;42.722;23.268;2022-11-15T09:29:53;99.28;;;33.58;;
42246;SDS011;27913;42.722;23.268;2022-11-15T09:32:19;91.25;;;31.98;;
42246;SDS011;27913;42.722;23.268;2022-11-15T09:34:44;87.72;;;30.25;;
42246;SDS011;27913;42.722;23.268;2022-11-15T09:37:10;81.95;;;30.00;;
42246;SDS011;27913;42.722;23.268;2022-11-15T09:39:37;100.53;;;32.40;;
42246;SDS011;27913;42.722;23.268;2022-11-15T09:50:51;82.38;;;32.70;;
42246;SDS011;27913;42.722;23.268;2022-11-15T10:04:01;90.30;;;33.88;;
42246;SDS011;27913;42.722;23.268;2022-11-15T10:06:27;95.80;;;32.45;;
42246;SDS011;27913;42.722;23.268;2022-11-15T10:11:59;95.53;;;32.17;;
42246;SDS011;27913;42.722;23.268;2022-11-15T10:14:25;101.70;;;36.67;;
42246;SDS011;27913;42.722;23.268;2022-11-15T10:27:41;95.97;;;33.05;;
42246;SDS011;27913;42.722;23.268;2022-11-15T10:30:12;97.97;;;35.75;;
42246;SDS011;27913;42.722;23.268;2022-11-15T10:32:40;108.15;;;39.65;;
42246;SDS011;27913;42.722;23.268;2022-11-15T10:37:51;89.47;;;34.10;;
42246;SDS011;27913;42.722;23.268;2022-11-15T10:40:24;100.00;;;34.78;;
42246;SDS011;27913;42.722;23.268;2022-11-15T10:43:12;85.28;;;34.72;;
42246;SDS011;27913;42.722;23.268;2022-11-15T10:45:40;81.00;;;34.10;;
42246;SDS011;27913;42.722;23.268;2022-11-15T10:50:37;88.88;;;34.25;;
42246;SDS011;27913;42.722;23.268;2022-11-15T10:53:50;76.00;;;31.30;;
42246;SDS011;27913;42.722;23.268;2022-11-15T10:56:02;77.53;;;30.40;;
42246;SDS011;27913;42.722;23.268;2022-11-15T10:58:41;72.43;;;28.75;;
42246;SDS011;27913;42.722;23.268;2022-11-15T11:01:15;69.68;;;30.13;;
42246;SDS011;27913;42.722;23.268;2022-11-15T11:03:43;74.43;;;30.67;;
42246;SDS011;27913;42.722;23.268;2022-11-15T11:08:40;73.53;;;30.17;;
42246;SDS011;27913;42.722;23.268;2022-11-15T11:11:19;76.45;;;28.60;;
42246;SDS011;27913;42.722;23.268;2022-11-15T11:13:45;54.72;;;24.63;;
42246;SDS011;27913;42.722;23.268;2022-11-15T11:21:38;59.25;;;23.63;;
42246;SDS011;27913;42.722;23.268;2022-11-15T11:27:17;45.63;;;19.70;;
42246;SDS011;27913;42.722;23.268;2022-11-15T11:30:18;61.67;;;24.38;;
42246;SDS011;27913;42.722;23.268;2022-11-15T11:33:12;66.55;;;27.58;;
42246;SDS011;27913;42.722;23.268;2022-11-15T11:35:45;60.63;;;24.92;;
42246;SDS011;27913;42.722;23.268;2022-11-15T11:43:46;66.60;;;25.90;;
42246;SDS011;27913;42.722;23.268;2022-11-15T11:49:06;65.90;;;28.23;;
42246;SDS011;27913;42.722;23.268;2022-11-15T11:51:39;71.88;;;29.65;;
42246;SDS011;27913;42.722;23.268;2022-11-15T11:54:12;57.88;;;25.60;;
42246;SDS011;27913;42.722;23.268;2022-11-15T11:56:44;72.78;;;29.67;;
42246;SDS011;27913;42.722;23.268;2022-11-15T12:01:57;65.60;;;28.00;;
42246;SDS011;27913;42.722;23.268;2022-11-15T12:04:38;76.40;;;29.75;;
42246;SDS011;27913;42.722;23.268;2022-11-15T12:07:08;60.35;;;25.38;;
42246;SDS011;27913;42.722;23.268;2022-11-15T12:09:43;74.38;;;28.73;;
42246;SDS011;27913;42.722;23.268;2022-11-15T12:14:50;76.18;;;31.42;;
42246;SDS011;27913;42.722;23.268;2022-11-15T12:17:22;64.88;;;27.60;;
42246;SDS011;27913;42.722;23.268;2022-11-15T12:19:51;69.97;;;28.90;;
42246;SDS011;27913;42.722;23.268;2022-11-15T12:22:23;70.25;;;29.63;;
42246;SDS011;27913;42.722;23.268;2022-11-15T12:25:07;54.28;;;23.27;;
42246;SDS011;27913;42.722;23.268;2022-11-15T12:30:23;67.35;;;25.90;;
42246;SDS011;27913;42.722;23.268;2022-11-15T12:32:59;64.35;;;25.15;;
42246;SDS011;27913;42.722;23.268;2022-11-15T12:35:40;79.95;;;28.83;;
42246;SDS011;27913;42.722;23.268;2022-11-15T12:38:11;69.50;;;28.70;;
42246;SDS011;27913;42.722;23.268;2022-11-15T12:43:39;45.42;;;20.20;;
42246;SDS011;27913;42.722;23.268;2022-11-15T12:46:11;58.78;;;25.38;;
42246;SDS011;27913;42.722;23.268;2022-11-15T12:56:51;56.65;;;24.23;;
42246;SDS011;27913;42.722;23.268;2022-11-15T13:02:37;54.25;;;25.30;;
42246;SDS011;27913;42.722;23.268;2022-11-15T13:17:43;62.95;;;26.08;;
42246;SDS011;27913;42.722;23.268;2022-11-15T13:22:42;55.67;;;23.92;;
42246;SDS011;27913;42.722;23.268;2022-11-15T13:26:04;59.13;;;25.02;;
42246;SDS011;27913;42.722;23.268;2022-11-15T13:33:10;53.05;;;24.08;;
42246;SDS011;27913;42.722;23.268;2022-11-15T13:35:42;58.38;;;25.90;;
42246;SDS011;27913;42.722;23.268;2022-11-15T13:38:34;58.25;;;24.73;;
42246;SDS011;27913;42.722;23.268;2022-11-15T13:40:59;53.85;;;24.67;;
42246;SDS011;27913;42.722;23.268;2022-11-15T13:43:39;59.15;;;25.02;;
42246;SDS011;27913;42.722;23.268;2022-11-15T13:46:10;54.28;;;23.85;;
42246;SDS011;27913;42.722;23.268;2022-11-15T13:48:59;53.72;;;23.05;;
42246;SDS011;27913;42.722;23.268;2022-11-15T13:51:34;51.42;;;23.15;;
42246;SDS011;27913;42.722;23.268;2022-11-15T13:56:37;57.95;;;25.20;;
42246;SDS011;27913;42.722;23.268;2022-11-15T13:59:44;53.05;;;22.50;;
42246;SDS011;27913;42.722;23.268;2022-11-15T14:02:11;56.15;;;24.23;;
42246;SDS011;27913;42.722;23.268;2022-11-15T14:04:45;69.60;;;29.90;;
42246;SDS011;27913;42.722;23.268;2022-11-15T14:07:18;53.42;;;22.67;;
42246;SDS011;27913;42.722;23.268;2022-11-15T14:09:45;67.75;;;27.35;;
42246;SDS011;27913;42.722;23.268;2022-11-15T14:17:52;49.95;;;21.92;;
42246;SDS011;27913;42.722;23.268;2022-11-15T14:20:28;48.85;;;21.85;;
42246;SDS011;27913;42.722;23.268;2022-11-15T14:26:05;59.80;;;23.83;;
42246;SDS011;27913;42.722;23.268;2022-11-15T14:28:33;57.72;;;21.38;;
42246;SDS011;27913;42.722;23.268;2022-11-15T14:31:04;54.00;;;23.67;;
42246;SDS011;27913;42.722;23.268;2022-11-15T14:33:36;63.72;;;26.27;;
42246;SDS011;27913;42.722;23.268;2022-11-15T14:36:04;43.08;;;18.80;;
42246;SDS011;27913;42.722;23.268;2022-11-15T14:38:37;60.38;;;25.38;;
42246;SDS011;27913;42.722;23.268;2022-11-15T14:41:02;58.88;;;25.88;;
42246;SDS011;27913;42.722;23.268;2022-11-15T14:43:28;67.68;;;25.85;;
42246;SDS011;27913;42.722;23.268;2022-11-15T14:45:53;55.88;;;23.65;;
42246;SDS011;27913;42.722;23.268;2022-11-15T14:48:19;63.53;;;28.88;;
42246;SDS011;27913;42.722;23.268;2022-11-15T14:50:45;67.70;;;28.35;;
42246;SDS011;27913;42.722;23.268;2022-11-15T14:53:19;59.88;;;25.63;;
42246;SDS011;27913;42.722;23.268;2022-11-15T14:55:45;56.50;;;24.67;;
42246;SDS011;27913;42.722;23.268;2022-11-15T14:58:11;57.92;;;25.42;;
42246;SDS011;27913;42.722;23.268;2022-11-15T15:00:38;63.58;;;25.88;;
42246;SDS011;27913;42.722;23.268;2022-11-15T15:03:05;64.07;;;26.98;;
42246;SDS011;27913;42.722;23.268;2022-11-15T15:05:32;56.30;;;25.20;;
42246;SDS011;27913;42.722;23.268;2022-11-15T15:07:59;60.90;;;24.92;;
42246;SDS011;27913;42.722;23.268;2022-11-15T15:10:26;60.35;;;25.70;;
42246;SDS011;27913;42.722;23.268;2022-11-15T15:12:55;63.10;;;25.50;;
42246;SDS011;27913;42.722;23.268;2022-11-15T15:15:25;57.17;;;23.60;;
42246;SDS011;27913;42.722;23.268;2022-11-15T15:17:53;53.47;;;23.88;;
42246;SDS011;27913;42.722;23.268;2022-11-15T15:20:18;57.22;;;24.08;;
42246;SDS011;27913;42.722;23.268;2022-11-15T15:22:44;66.28;;;25.83;;
42246;SDS011;27913;42.722;23.268;2022-11-15T15:27:53;66.70;;;29.30;;
42246;SDS011;27913;42.722;23.268;2022-11-15T15:30:19;81.25;;;35.38;;
42246;SDS011;27913;42.722;23.268;2022-11-15T15:32:45;75.97;;;33.35;;
42246;SDS011;27913;42.722;23.268;2022-11-15T15:35:11;68.75;;;30.08;;
42246;SDS011;27913;42.722;23.268;2022-11-15T15:37:38;72.78;;;31.23;;
42246;SDS011;27913;42.722;23.268;2022-11-15T15:40:24;56.65;;;28.83;;
42246;SDS011;27913;42.722;23.268;2022-11-15T15:42:51;61.15;;;30.00;;
42246;SDS011;27913;42.722;23.268;2022-11-15T15:45:17;68.32;;;27.63;;
42246;SDS011;27913;42.722;23.268;2022-11-15T15:47:43;72.13;;;32.45;;
42246;SDS011;27913;42.722;23.268;2022-11-15T15:50:14;73.88;;;31.63;;
42246;SDS011;27913;42.722;23.268;2022-11-15T15:52:45;87.40;;;39.38;;
42246;SDS011;27913;42.722;23.268;2022-11-15T15:55:10;95.25;;;41.55;;
42246;SDS011;27913;42.722;23.268;2022-11-15T15:57:36;104.53;;;47.38;;
42246;SDS011;27913;42.722;23.268;2022-11-15T16:00:02;90.72;;;39.75;;
42246;SDS011;27913;42.722;23.268;2022-11-15T16:02:28;96.25;;;43.35;;
42246;SDS011;27913;42.722;23.268;2022-11-15T16:04:54;79.07;;;36.15;;
42246;SDS011;27913;42.722;23.268;2022-11-15T16:07:22;83.53;;;34.70;;
42246;SDS011;27913;42.722;23.268;2022-11-15T16:09:53;82.55;;;35.72;;
42246;SDS011;27913;42.722;23.268;2022-11-15T16:12:24;101.40;;;40.08;;
42246;SDS011;27913;42.722;23.268;2022-11-15T16:14:52;80.38;;;33.08;;
42246;SDS011;27913;42.722;23.268;2022-11-15T16:17:18;81.90;;;34.40;;
42246;SDS011;27913;42.722;23.268;2022-11-15T16:19:46;83.35;;;33.35;;
42246;SDS011;27913;42.722;23.268;2022-11-15T16:22:12;82.53;;;35.33;;
42246;SDS011;27913;42.722;23.268;2022-11-15T16:24:37;86.75;;;37.90;;
42246;SDS011;27913;42.722;23.268;2022-11-15T16:27:03;89.13;;;35.60;;
42246;SDS011;27913;42.722;23.268;2022-11-15T16:29:28;78.15;;;31.42;;
42246;SDS011;27913;42.722;23.268;2022-11-15T16:31:54;72.68;;;28.90;;
42246;SDS011;27913;42.722;23.268;2022-11-15T16:34:20;67.25;;;27.85;;
42246;SDS011;27913;42.722;23.268;2022-11-15T16:36:47;67.95;;;27.52;;
42246;SDS011;27913;42.722;23.268;2022-11-15T16:39:13;66.65;;;24.92;;
42246;SDS011;27913;42.722;23.268;2022-11-15T16:41:40;65.28;;;26.73;;
42246;SDS011;27913;42.722;23.268;2022-11-15T16:44:08;68.40;;;29.02;;
42246;SDS011;27913;42.722;23.268;2022-11-15T16:46:33;69.95;;;31.08;;
42246;SDS011;27913;42.722;23.268;2022-11-15T16:48:59;82.20;;;32.00;;
42246;SDS011;27913;42.722;23.268;2022-11-15T16:51:25;71.32;;;32.97;;
42246;SDS011;27913;42.722;23.268;2022-11-15T16:53:50;74.35;;;33.08;;
42246;SDS011;27913;42.722;23.268;2022-11-15T16:56:26;65.78;;;29.48;;
42246;SDS011;27913;42.722;23.268;2022-11-15T16:58:53;65.75;;;29.98;;